Time;durP1;ratioP1;P1;durP2;ratioP2;P2;SDS_P1;SDS_P2;PMS_P1;PMS_P2;Temp;Humidity;BMP_temperature;BMP_pressure;BME280_temperature;BME280_humidity;BME280_pressure;Samples;Min_cycle;Max_cycle;Signal;HPM_P1;HPM_P2
2023/06/14 00:00:40;;;;;;;1999.90;999.90;;;13.70;95.20;;;;;;5034994;28;20036;-74
2023/06/14 00:03:08;;;;;;;1999.90;999.90;;;13.70;95.60;;;;;;5032744;28;20050;-74
2023/06/14 00:05:38;;;;;;;1999.90;999.90;;;13.60;94.80;;;;;;5034669;28;20040;-74
2023/06/14 00:08:07;;;;;;;1999.90;999.90;;;13.60;95.60;;;;;;5035378;28;20064;-74
2023/06/14 00:10:35;;;;;;;1999.90;999.90;;;13.60;95.20;;;;;;5034684;28;20026;-74
2023/06/14 00:13:10;;;;;;;1999.90;999.90;;;13.50;96.00;;;;;;5034634;28;20044;-74
2023/06/14 00:15:35;;;;;;;1999.90;999.90;;;13.50;95.70;;;;;;5034761;28;20037;-73
2023/06/14 00:18:01;;;;;;;1999.90;999.90;;;13.40;95.80;;;;;;5035083;28;20038;-73
2023/06/14 00:20:28;;;;;;;1999.90;999.90;;;13.40;95.80;;;;;;5034541;28;20038;-74
2023/06/14 00:22:57;;;;;;;1999.90;999.90;;;13.40;95.30;;;;;;5033212;28;20053;-74
2023/06/14 00:25:25;;;;;;;1999.90;999.90;;;13.30;95.50;;;;;;5034050;28;20038;-74
2023/06/14 00:27:51;;;;;;;1999.90;999.90;;;13.30;95.80;;;;;;5032766;28;20069;-74
2023/06/14 00:30:16;;;;;;;1999.90;999.90;;;13.30;96.90;;;;;;5033129;28;20065;-74
2023/06/14 00:32:42;;;;;;;1999.90;999.90;;;13.30;95.60;;;;;;5034000;28;20046;-74
2023/06/14 00:35:09;;;;;;;1999.90;999.90;;;13.20;96.10;;;;;;5034152;28;20396;-74
2023/06/14 00:37:35;;;;;;;1999.90;999.90;;;13.20;97.10;;;;;;5034555;28;20060;-74
2023/06/14 00:40:00;;;;;;;1999.90;999.90;;;13.20;97.50;;;;;;5034028;28;20495;-74
2023/06/14 00:42:27;;;;;;;1999.90;999.90;;;13.20;96.20;;;;;;5034434;28;20042;-74
2023/06/14 00:44:52;;;;;;;1999.90;999.90;;;13.10;96.10;;;;;;5033605;28;20041;-74
2023/06/14 00:47:19;;;;;;;1999.90;999.90;;;13.00;95.90;;;;;;5033981;28;20038;-74
2023/06/14 00:49:50;;;;;;;1999.90;999.90;;;13.00;96.20;;;;;;5034762;28;20087;-74
2023/06/14 00:52:17;;;;;;;1999.90;999.90;;;13.00;96.60;;;;;;5033527;28;20508;-73
2023/06/14 00:54:43;;;;;;;1999.90;999.90;;;13.00;97.10;;;;;;5033923;28;20030;-73
2023/06/14 00:57:10;;;;;;;1999.90;999.90;;;13.00;97.30;;;;;;5033520;28;20153;-74
2023/06/14 00:59:42;;;;;;;1999.90;999.90;;;13.00;96.60;;;;;;5034381;28;20034;-73
2023/06/14 01:02:09;;;;;;;1999.90;999.90;;;12.90;97.40;;;;;;5033530;28;20499;-73
2023/06/14 01:04:35;;;;;;;1999.90;999.90;;;12.90;97.70;;;;;;5030037;28;20530;-74
2023/06/14 01:07:23;;;;;;;1999.90;999.90;;;12.90;96.60;;;;;;5033687;28;20057;-74
2023/06/14 01:10:08;;;;;;;1999.90;999.90;;;12.80;96.60;;;;;;5034129;28;20030;-74
2023/06/14 01:12:56;;;;;;;1999.90;999.90;;;12.70;96.90;;;;;;5034294;28;20038;-73
2023/06/14 01:15:22;;;;;;;1999.90;999.90;;;12.70;96.80;;;;;;5016529;28;20045;-73
2023/06/14 01:17:51;;;;;;;1999.90;999.90;;;12.70;97.70;;;;;;5034008;28;20510;-74
2023/06/14 01:20:19;;;;;;;1999.90;999.90;;;12.70;97.70;;;;;;5033691;28;20088;-73
2023/06/14 01:22:51;;;;;;;1999.90;999.90;;;12.60;97.10;;;;;;5033459;28;20037;-74
2023/06/14 01:25:20;;;;;;;1999.90;999.90;;;12.70;97.30;;;;;;5031756;28;20046;-73
2023/06/14 01:27:55;;;;;;;1999.90;999.90;;;12.60;97.20;;;;;;5032244;28;20037;-74
2023/06/14 01:30:22;;;;;;;1999.90;999.90;;;12.60;97.60;;;;;;5033879;28;20456;-73
2023/06/14 01:32:50;;;;;;;1999.90;999.90;;;12.60;97.60;;;;;;5033525;28;20047;-74
2023/06/14 01:35:15;;;;;;;1999.90;999.90;;;12.50;97.60;;;;;;5033269;28;20088;-74
2023/06/14 01:37:42;;;;;;;1999.90;999.90;;;12.50;97.40;;;;;;5033720;28;20092;-73
2023/06/14 01:40:10;;;;;;;1999.90;999.90;;;12.50;98.30;;;;;;5033394;28;20030;-74
2023/06/14 01:42:37;;;;;;;1999.90;999.90;;;12.50;97.80;;;;;;5033130;28;20531;-74
2023/06/14 01:45:05;;;;;;;1999.90;999.90;;;12.50;98.70;;;;;;5031634;28;20034;-73
2023/06/14 01:47:32;;;;;;;1999.90;999.90;;;12.60;98.60;;;;;;5032250;28;20073;-74
2023/06/14 01:49:58;;;;;;;1999.90;999.90;;;12.50;98.60;;;;;;5032447;28;20137;-73
2023/06/14 01:52:24;;;;;;;1999.90;999.90;;;12.50;98.40;;;;;;5032951;28;20161;-74
2023/06/14 01:54:50;;;;;;;1999.90;999.90;;;12.50;98.10;;;;;;5033386;28;20470;-74
2023/06/14 01:57:16;;;;;;;1999.90;999.90;;;12.50;98.60;;;;;;5034729;28;20444;-73
2023/06/14 01:59:42;;;;;;;1999.90;999.90;;;12.50;99.10;;;;;;5036974;28;20137;-74
2023/06/14 02:02:07;;;;;;;1999.90;999.90;;;12.40;98.70;;;;;;5036765;28;20034;-74
2023/06/14 02:04:33;;;;;;;1999.90;999.90;;;12.40;98.10;;;;;;5036422;28;20050;-73
2023/06/14 02:06:59;;;;;;;1999.90;999.90;;;12.40;98.50;;;;;;5036579;28;20026;-74
2023/06/14 02:09:24;;;;;;;1999.90;999.90;;;12.40;98.50;;;;;;5036651;28;20065;-73
2023/06/14 02:11:50;;;;;;;1999.90;999.90;;;12.40;98.10;;;;;;5034940;28;20084;-74
2023/06/14 02:14:16;;;;;;;1999.90;999.90;;;12.30;99.10;;;;;;5036661;28;20038;-73
2023/06/14 02:16:48;;;;;;;1999.90;999.90;;;12.30;98.70;;;;;;5036374;28;20061;-74
2023/06/14 02:19:17;;;;;;;1999.90;999.90;;;12.30;98.30;;;;;;5036958;28;20030;-73
2023/06/14 02:21:43;;;;;;;1999.90;999.90;;;12.20;98.40;;;;;;5035542;28;20164;-74
2023/06/14 02:24:08;;;;;;;1999.90;999.90;;;12.20;98.60;;;;;;5036037;28;20041;-74
2023/06/14 02:26:34;;;;;;;1999.90;999.90;;;12.20;98.80;;;;;;5036389;28;20392;-73
2023/06/14 02:29:00;;;;;;;1999.90;999.90;;;12.20;98.60;;;;;;5036477;28;20041;-73
2023/06/14 02:31:26;;;;;;;1999.90;999.90;;;12.20;98.40;;;;;;5036263;28;20038;-73
2023/06/14 02:33:51;;;;;;;1999.90;999.90;;;12.20;99.20;;;;;;5036242;28;20030;-74
2023/06/14 02:36:17;;;;;;;1999.90;999.90;;;12.20;98.70;;;;;;5016334;28;20108;-73
2023/06/14 02:38:42;;;;;;;1999.90;999.90;;;12.20;98.60;;;;;;5032793;28;20117;-73
2023/06/14 02:41:08;;;;;;;1999.90;999.90;;;12.20;99.30;;;;;;5035738;28;20412;-74
2023/06/14 02:43:33;;;;;;;1999.90;999.90;;;12.10;98.90;;;;;;5034628;28;20033;-73
2023/06/14 02:45:59;;;;;;;1999.90;999.90;;;12.20;99.30;;;;;;5035957;28;20048;-73
2023/06/14 02:48:25;;;;;;;1999.90;999.90;;;12.20;98.90;;;;;;5036427;28;20030;-73
2023/06/14 02:50:51;;;;;;;1999.90;999.90;;;12.20;99.00;;;;;;5036446;28;20042;-75
2023/06/14 02:53:17;;;;;;;1999.90;999.90;;;12.20;99.00;;;;;;5036061;28;20034;-74
2023/06/14 02:55:42;;;;;;;1999.90;999.90;;;12.10;99.40;;;;;;5035508;28;20137;-73
2023/06/14 02:58:08;;;;;;;1999.90;999.90;;;12.00;98.90;;;;;;5036144;28;20125;-73
2023/06/14 03:00:35;;;;;;;1999.90;999.90;;;12.00;99.20;;;;;;5036291;28;20065;-73
2023/06/14 03:03:02;;;;;;;1999.90;999.90;;;12.00;99.40;;;;;;5035380;28;20041;-73
2023/06/14 03:05:28;;;;;;;1999.90;999.90;;;11.90;99.40;;;;;;5033896;28;20122;-74
2023/06/14 03:07:54;;;;;;;1999.90;999.90;;;11.90;99.90;;;;;;5034822;28;20081;-76
2023/06/14 03:10:20;;;;;;;1999.90;999.90;;;11.80;99.10;;;;;;5034449;28;20514;-75
2023/06/14 03:12:47;;;;;;;1999.90;999.90;;;11.80;99.50;;;;;;5035833;28;20042;-75
2023/06/14 03:15:13;;;;;;;1999.90;999.90;;;11.70;99.70;;;;;;5035802;28;20030;-74
2023/06/14 03:17:38;;;;;;;1999.90;999.90;;;11.70;99.60;;;;;;5035775;28;20377;-74
2023/06/14 03:20:05;;;;;;;1999.90;999.90;;;11.80;99.80;;;;;;5035633;28;20034;-74
2023/06/14 03:22:33;;;;;;;1999.90;999.90;;;11.80;99.80;;;;;;5035282;28;20121;-74
2023/06/14 03:24:59;;;;;;;1999.90;999.90;;;11.70;99.70;;;;;;5033842;28;20168;-74
2023/06/14 03:27:25;;;;;;;1999.90;999.90;;;11.70;99.90;;;;;;5036011;28;20108;-74
2023/06/14 03:29:51;;;;;;;1999.90;999.90;;;11.70;99.60;;;;;;5035368;28;20046;-74
2023/06/14 03:32:16;;;;;;;1999.90;999.90;;;11.80;99.90;;;;;;5035179;28;20400;-74
2023/06/14 03:34:42;;;;;;;1999.90;999.90;;;11.90;99.90;;;;;;5035433;28;20041;-74
2023/06/14 03:37:08;;;;;;;1999.90;999.90;;;11.90;99.80;;;;;;5034881;28;20037;-74
2023/06/14 03:39:33;;;;;;;1999.90;999.90;;;11.90;99.80;;;;;;5035098;28;20113;-74
2023/06/14 03:41:59;;;;;;;1999.90;999.90;;;11.80;99.60;;;;;;5035150;28;20036;-74
2023/06/14 03:44:26;;;;;;;1999.90;999.90;;;11.80;99.90;;;;;;5035245;28;20045;-74
2023/06/14 03:46:52;;;;;;;1999.90;999.90;;;11.80;99.70;;;;;;5035346;28;20057;-74
2023/06/14 03:49:18;;;;;;;1999.90;999.90;;;11.70;99.60;;;;;;5035286;28;20025;-74
2023/06/14 03:51:44;;;;;;;1999.90;999.90;;;11.70;99.70;;;;;;5033361;28;20124;-74
2023/06/14 03:54:10;;;;;;;1999.90;999.90;;;11.70;99.90;;;;;;5035103;28;20037;-74
2023/06/14 03:56:35;;;;;;;1999.90;999.90;;;11.70;99.90;;;;;;5033162;28;20038;-74
2023/06/14 03:59:02;;;;;;;1999.90;999.90;;;11.90;99.90;;;;;;5035024;28;20038;-75
2023/06/14 04:01:29;;;;;;;1999.90;999.90;;;11.80;99.70;;;;;;5034577;28;20527;-75
2023/06/14 04:03:56;;;;;;;1999.90;999.90;;;11.80;99.80;;;;;;5034911;28;20537;-74
2023/06/14 04:06:22;;;;;;;1999.90;999.90;;;11.80;99.90;;;;;;5034579;28;20030;-74
2023/06/14 04:08:49;;;;;;;1999.90;999.90;;;11.80;99.90;;;;;;5034606;28;20042;-74
2023/06/14 04:11:15;;;;;;;1999.90;999.90;;;11.80;99.80;;;;;;5034875;28;20038;-74
2023/06/14 04:13:40;;;;;;;1999.90;999.90;;;11.90;99.90;;;;;;5034583;28;20034;-74
2023/06/14 04:16:06;;;;;;;1999.90;999.90;;;11.90;99.60;;;;;;5034883;28;20032;-76
2023/06/14 04:18:31;;;;;;;1999.90;999.90;;;12.00;99.50;;;;;;5034756;28;20507;-74
2023/06/14 04:20:57;;;;;;;1999.90;999.90;;;12.00;99.90;;;;;;5031918;28;20120;-75
2023/06/14 04:23:23;;;;;;;1999.90;999.90;;;12.10;99.90;;;;;;5033249;28;20042;-75
2023/06/14 04:25:49;;;;;;;1999.90;999.90;;;12.30;99.90;;;;;;5034784;28;20030;-74
2023/06/14 04:28:18;;;;;;;1999.90;999.90;;;12.30;99.90;;;;;;5032878;28;20064;-75
2023/06/14 04:30:44;;;;;;;1999.90;999.90;;;12.40;99.90;;;;;;5021450;28;20456;-76
2023/06/14 04:33:11;;;;;;;1999.90;999.90;;;12.40;99.80;;;;;;5034074;28;20040;-75
2023/06/14 04:35:37;;;;;;;1999.90;999.90;;;12.40;99.40;;;;;;5034615;28;20033;-74
2023/06/14 04:38:09;;;;;;;1999.90;999.90;;;12.40;99.40;;;;;;5034919;28;20045;-74
2023/06/14 04:40:36;;;;;;;1999.90;999.90;;;12.50;99.60;;;;;;5034701;28;20491;-74
2023/06/14 04:43:05;;;;;;;1999.90;999.90;;;12.60;99.90;;;;;;5034517;28;20046;-74
2023/06/14 04:45:31;;;;;;;1999.90;999.90;;;12.70;99.70;;;;;;5033034;28;20029;-75
2023/06/14 04:47:59;;;;;;;1999.90;999.90;;;12.70;99.30;;;;;;5032721;28;20173;-75
2023/06/14 04:50:25;;;;;;;1999.90;999.90;;;12.80;99.30;;;;;;5034568;28;20053;-75
2023/06/14 04:52:51;;;;;;;1999.90;999.90;;;12.90;99.30;;;;;;5033537;28;20773;-74
2023/06/14 04:55:19;;;;;;;1999.90;999.90;;;13.00;98.80;;;;;;5034122;28;20029;-74
2023/06/14 04:57:44;;;;;;;1999.90;999.90;;;13.10;99.00;;;;;;5033496;28;20042;-74
2023/06/14 05:00:11;;;;;;;1999.90;999.90;;;13.10;98.20;;;;;;5034376;28;20030;-74
2023/06/14 05:02:37;;;;;;;1999.90;999.90;;;13.30;97.80;;;;;;5034044;28;20029;-74
2023/06/14 05:05:07;;;;;;;1999.90;999.90;;;13.40;97.60;;;;;;5032745;28;20033;-74
2023/06/14 05:07:33;;;;;;;1999.90;999.90;;;13.50;97.30;;;;;;5034300;28;20034;-75
2023/06/14 05:09:59;;;;;;;1999.90;999.90;;;13.60;97.00;;;;;;5034445;28;20559;-74
2023/06/14 05:12:25;;;;;;;1999.90;999.90;;;13.90;96.40;;;;;;5032416;28;20120;-74
2023/06/14 05:14:50;;;;;;;1999.90;999.90;;;14.00;96.40;;;;;;5032835;28;20503;-75
2023/06/14 05:17:16;;;;;;;1999.90;999.90;;;14.10;96.10;;;;;;5034254;28;20126;-75
2023/06/14 05:19:42;;;;;;;1999.90;999.90;;;14.30;95.90;;;;;;5034407;28;20514;-75
2023/06/14 05:22:08;;;;;;;1999.90;999.90;;;14.30;95.60;;;;;;5033669;28;20046;-74
2023/06/14 05:24:33;;;;;;;1999.90;999.90;;;14.50;95.50;;;;;;5034156;28;20045;-74
2023/06/14 05:26:59;;;;;;;1999.90;999.90;;;14.60;95.20;;;;;;5033874;28;20041;-75
2023/06/14 05:29:25;;;;;;;1999.90;999.90;;;14.80;95.40;;;;;;5032687;28;20029;-74
2023/06/14 05:31:51;;;;;;;1999.90;999.90;;;14.80;95.10;;;;;;5035045;28;20022;-74
2023/06/14 05:34:17;;;;;;;1999.90;999.90;;;14.90;94.50;;;;;;5037707;28;20040;-74
2023/06/14 05:36:42;;;;;;;1999.90;999.90;;;15.00;93.80;;;;;;5037296;28;20034;-74
2023/06/14 05:39:08;;;;;;;1999.90;999.90;;;15.20;94.10;;;;;;5037491;28;20125;-77
2023/06/14 05:41:33;;;;;;;1999.90;999.90;;;15.30;93.80;;;;;;5035662;28;20427;-76
2023/06/14 05:44:00;;;;;;;1999.90;999.90;;;15.40;93.70;;;;;;5036950;28;20069;-75
2023/06/14 05:46:26;;;;;;;1999.90;999.90;;;15.50;93.40;;;;;;5035767;28;20157;-75
2023/06/14 05:48:52;;;;;;;1999.90;999.90;;;15.60;93.50;;;;;;5037524;28;20553;-77
2023/06/14 05:51:20;;;;;;;1999.90;999.90;;;15.70;93.00;;;;;;5035862;28;20081;-76
2023/06/14 05:53:47;;;;;;;1999.90;999.90;;;15.70;93.00;;;;;;5038066;28;20104;-76
2023/06/14 05:56:13;;;;;;;1999.90;999.90;;;15.90;92.70;;;;;;5036973;28;20040;-75
2023/06/14 05:58:39;;;;;;;1999.90;999.90;;;16.00;93.10;;;;;;5037041;28;20045;-75
2023/06/14 06:01:04;;;;;;;1999.90;999.90;;;16.00;92.60;;;;;;5035347;28;20057;-76
2023/06/14 06:03:30;;;;;;;1999.90;999.90;;;16.10;92.40;;;;;;5037137;28;20034;-76
2023/06/14 06:05:55;;;;;;;1999.90;999.90;;;16.20;92.50;;;;;;5037211;28;20085;-74
2023/06/14 06:08:21;;;;;;;1999.90;999.90;;;16.20;92.80;;;;;;5036687;28;20108;-74
2023/06/14 06:10:47;;;;;;;1999.90;999.90;;;16.20;92.70;;;;;;5037127;28;20061;-74
2023/06/14 06:13:12;;;;;;;1999.90;999.90;;;16.20;92.60;;;;;;5037031;28;20408;-74
2023/06/14 06:15:38;;;;;;;1999.90;999.90;;;16.40;92.30;;;;;;5037096;28;20041;-74
2023/06/14 06:18:03;;;;;;;1999.90;999.90;;;16.40;91.90;;;;;;5036942;28;20065;-73
2023/06/14 06:20:31;;;;;;;1999.90;999.90;;;16.40;92.30;;;;;;5037544;28;20026;-76
2023/06/14 06:22:57;;;;;;;1999.90;999.90;;;16.50;92.20;;;;;;5036812;28;20038;-78
2023/06/14 06:25:25;;;;;;;1999.90;999.90;;;16.50;92.10;;;;;;5035333;28;20041;-76
2023/06/14 06:27:55;;;;;;;1999.90;999.90;;;16.60;91.70;;;;;;5035405;28;20033;-77
2023/06/14 06:30:21;;;;;;;1999.90;999.90;;;16.70;91.60;;;;;;5037552;28;20037;-77
2023/06/14 06:32:47;;;;;;;1999.90;999.90;;;16.70;91.10;;;;;;5036930;28;20041;-77
2023/06/14 06:35:13;;;;;;;1999.90;999.90;;;16.80;91.30;;;;;;5036672;28;20034;-76
2023/06/14 06:37:39;;;;;;;1999.90;999.90;;;16.90;91.00;;;;;;5036768;28;20395;-74
2023/06/14 06:40:05;;;;;;;1999.90;999.90;;;17.10;90.80;;;;;;5036953;28;20038;-76
2023/06/14 06:42:31;;;;;;;1999.90;999.90;;;17.20;90.90;;;;;;5036187;28;20040;-75
2023/06/14 06:44:57;;;;;;;1999.90;999.90;;;17.30;90.60;;;;;;5036011;28;20038;-76
2023/06/14 06:47:23;;;;;;;1999.90;999.90;;;17.40;90.10;;;;;;5036513;28;20026;-76
2023/06/14 06:49:48;;;;;;;1999.90;999.90;;;17.60;89.90;;;;;;5036570;28;20109;-75
2023/06/14 06:52:14;;;;;;;1999.90;999.90;;;17.70;90.10;;;;;;5036039;28;20088;-75
2023/06/14 06:54:39;;;;;;;1999.90;999.90;;;17.80;89.40;;;;;;5036462;28;20045;-75
2023/06/14 06:57:06;;;;;;;1999.90;999.90;;;18.00;89.40;;;;;;5034566;28;20036;-74
2023/06/14 06:59:32;;;;;;;1999.90;999.90;;;18.20;89.00;;;;;;5036740;28;20034;-78
2023/06/14 07:01:58;;;;;;;1999.90;999.90;;;18.20;88.30;;;;;;5036069;28;20116;-77
2023/06/14 07:04:23;;;;;;;1999.90;999.90;;;18.30;88.30;;;;;;5034858;28;20049;-76
2023/06/14 07:06:49;;;;;;;1999.90;999.90;;;18.50;87.50;;;;;;5034405;28;20053;-76
2023/06/14 07:09:15;;;;;;;1999.90;999.90;;;18.60;86.90;;;;;;5036676;28;20037;-77
2023/06/14 07:11:43;;;;;;;1999.90;999.90;;;18.80;86.30;;;;;;5036000;28;20030;-76
2023/06/14 07:14:08;;;;;;;1999.90;999.90;;;18.80;85.80;;;;;;5035968;28;20038;-77
2023/06/14 07:16:34;;;;;;;1999.90;999.90;;;18.90;86.70;;;;;;5034390;28;20041;-77
2023/06/14 07:19:01;;;;;;;1999.90;999.90;;;19.10;85.00;;;;;;5035956;28;20513;-77
2023/06/14 07:21:26;;;;;;;1999.90;999.90;;;19.10;84.90;;;;;;5036069;28;20029;-76
2023/06/14 07:23:55;;;;;;;1999.90;999.90;;;19.20;85.20;;;;;;5035916;28;20069;-77
2023/06/14 07:26:21;;;;;;;1999.90;999.90;;;19.40;85.10;;;;;;5035673;28;20508;-77
2023/06/14 07:28:48;;;;;;;1999.90;999.90;;;19.50;86.00;;;;;;5035802;28;20517;-76
2023/06/14 07:31:15;;;;;;;1999.90;999.90;;;19.40;84.70;;;;;;5034102;28;20030;-77
2023/06/14 07:33:41;;;;;;;1999.90;999.90;;;19.50;84.90;;;;;;5034336;28;20072;-77
2023/06/14 07:36:07;;;;;;;1999.90;999.90;;;19.70;84.10;;;;;;5034023;28;20030;-77
2023/06/14 07:38:33;;;;;;;1999.90;999.90;;;19.80;82.50;;;;;;5036514;28;20026;-78
2023/06/14 07:40:58;;;;;;;1999.90;999.90;;;20.00;83.10;;;;;;5034037;28;20096;-77
2023/06/14 07:43:24;;;;;;;1999.90;999.90;;;20.00;82.70;;;;;;5035514;28;20045;-77
2023/06/14 07:45:49;;;;;;;1999.90;999.90;;;20.30;82.00;;;;;;5035527;28;20034;-79
2023/06/14 07:48:15;;;;;;;1999.90;999.90;;;20.40;80.70;;;;;;5035928;28;20092;-77
2023/06/14 07:50:40;;;;;;;1999.90;999.90;;;20.60;81.20;;;;;;5035359;28;20040;-77
2023/06/14 07:53:06;;;;;;;1999.90;999.90;;;20.50;80.20;;;;;;5035130;28;20042;-77
2023/06/14 07:55:33;;;;;;;1999.90;999.90;;;20.80;80.30;;;;;;5033809;28;20038;-77
2023/06/14 07:57:58;;;;;;;1999.90;999.90;;;20.80;78.90;;;;;;5035626;28;20045;-77
2023/06/14 08:00:24;;;;;;;1999.90;999.90;;;20.70;79.70;;;;;;5033973;28;20029;-78
2023/06/14 08:02:51;;;;;;;1999.90;999.90;;;20.80;80.20;;;;;;5034987;28;20038;-77
2023/06/14 08:05:17;;;;;;;1999.90;999.90;;;20.80;79.20;;;;;;5033732;28;20034;-77
2023/06/14 08:07:43;;;;;;;1999.90;999.90;;;21.10;78.10;;;;;;5035187;28;20364;-77
2023/06/14 08:10:08;;;;;;;1999.90;999.90;;;20.90;78.00;;;;;;5035873;28;20085;-80
2023/06/14 08:12:34;;;;;;;1999.90;999.90;;;20.90;78.60;;;;;;5038332;28;20037;-80
2023/06/14 08:15:00;;;;;;;1999.90;999.90;;;21.30;77.80;;;;;;5034018;28;20038;-78
2023/06/14 08:17:26;;;;;;;1999.90;999.90;;;21.40;77.10;;;;;;5034881;28;20041;-81
2023/06/14 08:19:54;;;;;;;1999.90;999.90;;;21.40;78.00;;;;;;5036225;28;20430;-79
2023/06/14 08:22:21;;;;;;;1999.90;999.90;;;21.70;76.40;;;;;;5038710;28;20038;-81
2023/06/14 08:24:47;;;;;;;1999.90;999.90;;;21.80;75.90;;;;;;5037739;28;20578;-79
2023/06/14 08:27:13;;;;;;;1999.90;999.90;;;21.90;74.90;;;;;;5037176;28;20081;-80
2023/06/14 08:29:40;;;;;;;1999.90;999.90;;;21.80;76.00;;;;;;5037839;28;20109;-77
2023/06/14 08:32:06;;;;;;;1999.90;999.90;;;22.00;74.70;;;;;;5035630;28;20038;-79
2023/06/14 08:34:32;;;;;;;1999.90;999.90;;;22.00;74.70;;;;;;5033900;28;20034;-80
2023/06/14 08:36:57;;;;;;;1999.90;999.90;;;22.00;75.20;;;;;;5037543;28;20026;-79
2023/06/14 08:39:23;;;;;;;1999.90;999.90;;;22.40;74.80;;;;;;5036884;28;20033;-79
2023/06/14 08:41:49;;;;;;;1999.90;999.90;;;22.30;73.40;;;;;;5036547;28;20092;-79
2023/06/14 08:44:19;;;;;;;1999.90;999.90;;;22.70;73.10;;;;;;5037907;28;20566;-78
2023/06/14 08:46:47;;;;;;;1999.90;999.90;;;22.60;73.60;;;;;;5038037;28;20116;-78
2023/06/14 08:49:16;;;;;;;1999.90;999.90;;;22.50;73.70;;;;;;5039020;28;20484;-78
2023/06/14 08:51:43;;;;;;;1999.90;999.90;;;22.80;73.20;;;;;;5038989;28;20042;-79
2023/06/14 08:54:11;;;;;;;1999.90;999.90;;;23.00;70.80;;;;;;5040156;28;20467;-78
2023/06/14 08:56:38;;;;;;;1999.90;999.90;;;23.40;71.00;;;;;;5039617;28;20104;-78
2023/06/14 08:59:04;;;;;;;1999.90;999.90;;;23.00;69.70;;;;;;5039435;28;20538;-78
2023/06/14 09:01:34;;;;;;;1999.90;999.90;;;23.00;71.30;;;;;;5038400;28;20022;-77
2023/06/14 09:04:00;;;;;;;1999.90;999.90;;;23.20;71.20;;;;;;5042468;28;20416;-81
2023/06/14 09:06:27;;;;;;;1999.90;999.90;;;23.30;69.10;;;;;;5041028;28;20041;-78
2023/06/14 09:08:56;;;;;;;1999.90;999.90;;;23.30;69.70;;;;;;5041776;28;20118;-80
2023/06/14 09:11:22;;;;;;;1999.90;999.90;;;23.10;70.80;;;;;;5036935;28;20034;-78
2023/06/14 09:13:49;;;;;;;1999.90;999.90;;;23.30;70.00;;;;;;5035815;28;20038;-78
2023/06/14 09:16:15;;;;;;;1999.90;999.90;;;23.60;69.30;;;;;;5038559;28;20026;-77
2023/06/14 09:18:47;;;;;;;1999.90;999.90;;;23.60;70.10;;;;;;5040126;28;20044;-76
2023/06/14 09:21:14;;;;;;;1999.90;999.90;;;23.90;66.80;;;;;;5039620;28;20014;-78
2023/06/14 09:23:42;;;;;;;1999.90;999.90;;;23.90;66.00;;;;;;5035920;28;20069;-77
2023/06/14 09:26:11;;;;;;;1999.90;999.90;;;24.00;68.00;;;;;;5035965;28;20490;-77
2023/06/14 09:28:42;;;;;;;1999.90;999.90;;;24.40;68.30;;;;;;5037644;28;20092;-77
2023/06/14 09:31:09;;;;;;;1999.90;999.90;;;24.30;65.30;;;;;;5033049;28;20166;-77
2023/06/14 09:33:35;;;;;;;1999.90;999.90;;;24.50;66.30;;;;;;5035668;28;20038;-77
2023/06/14 09:36:01;;;;;;;1999.90;999.90;;;24.50;66.30;;;;;;5037425;28;20436;-81
2023/06/14 09:38:26;;;;;;;1999.90;999.90;;;24.70;66.60;;;;;;5036382;28;20087;-77
2023/06/14 09:40:52;;;;;;;1999.90;999.90;;;25.00;64.80;;;;;;5034299;28;20038;-76
2023/06/14 09:43:19;;;;;;;1999.90;999.90;;;25.30;64.40;;;;;;5034588;28;20038;-77
2023/06/14 09:45:48;;;;;;;1999.90;999.90;;;25.40;63.10;;;;;;5026313;28;20515;-77
2023/06/14 09:48:17;;;;;;;1999.90;999.90;;;25.80;62.10;;;;;;5033363;28;20038;-77
2023/06/14 09:50:46;;;;;;;1999.90;999.90;;;25.80;63.20;;;;;;5033723;28;20098;-77
2023/06/14 09:53:13;;;;;;;1999.90;999.90;;;25.60;62.70;;;;;;5033615;28;20030;-78
2023/06/14 09:55:40;;;;;;;1999.90;999.90;;;25.50;63.10;;;;;;5034536;28;20034;-77
2023/06/14 09:58:08;;;;;;;1999.90;999.90;;;25.20;65.50;;;;;;5035458;28;20044;-77
2023/06/14 10:00:34;;;;;;;1999.90;999.90;;;25.30;62.40;;;;;;5035009;28;20034;-77
2023/06/14 10:03:06;;;;;;;1999.90;999.90;;;25.10;62.80;;;;;;5032701;28;20072;-77
2023/06/14 10:05:35;;;;;;;1999.90;999.90;;;24.80;63.30;;;;;;5035276;28;20105;-77
2023/06/14 10:08:08;;;;;;;1999.90;999.90;;;25.10;63.40;;;;;;5033487;28;20146;-77
2023/06/14 10:10:34;;;;;;;1999.90;999.90;;;25.40;62.10;;;;;;5035088;28;20061;-77
2023/06/14 10:13:00;;;;;;;1999.90;999.90;;;25.60;58.90;;;;;;5035121;28;20030;-77
2023/06/14 10:15:41;;;;;;;1999.90;999.90;;;26.20;58.60;;;;;;5036123;28;20030;-77
2023/06/14 10:18:45;;;;;;;1999.90;999.90;;;26.70;59.50;;;;;;5033282;28;20053;-77
2023/06/14 10:21:26;;;;;;;1999.90;999.90;;;26.60;57.50;;;;;;5037444;28;20034;-77
2023/06/14 10:23:51;;;;;;;1999.90;999.90;;;26.80;59.80;;;;;;5037498;28;20042;-75
2023/06/14 10:26:21;;;;;;;1999.90;999.90;;;26.90;59.60;;;;;;5035897;28;20030;-77
2023/06/14 10:28:59;;;;;;;1999.90;999.90;;;26.80;53.40;;;;;;5036260;28;20550;-77
2023/06/14 10:31:43;;;;;;;1999.90;999.90;;;27.30;55.00;;;;;;5038153;28;20038;-77
2023/06/14 10:34:10;;;;;;;1999.90;999.90;;;27.00;55.20;;;;;;5036846;28;20173;-77
2023/06/14 10:36:35;;;;;;;1999.90;999.90;;;26.90;54.30;;;;;;5037435;28;20030;-77
2023/06/14 10:39:18;;;;;;;1999.90;999.90;;;26.90;56.70;;;;;;5036927;28;20504;-77
2023/06/14 10:41:52;;;;;;;1999.90;999.90;;;27.10;54.50;;;;;;5036647;28;20038;-77
2023/06/14 10:44:21;;;;;;;1999.90;999.90;;;27.00;52.70;;;;;;5036745;28;20069;-77
2023/06/14 10:46:47;;;;;;;1999.90;999.90;;;27.00;53.40;;;;;;5037269;28;20514;-77
2023/06/14 10:49:18;;;;;;;1999.90;999.90;;;26.80;53.80;;;;;;5037997;28;20477;-78
2023/06/14 10:51:50;;;;;;;1999.90;999.90;;;26.30;53.00;;;;;;5037245;28;20034;-77
2023/06/14 10:54:17;;;;;;;1999.90;999.90;;;26.70;55.50;;;;;;5036184;28;20112;-77
2023/06/14 10:56:51;;;;;;;1999.90;999.90;;;27.00;54.50;;;;;;5035730;28;20104;-77
2023/06/14 10:59:18;;;;;;;1999.90;999.90;;;27.00;54.60;;;;;;5035525;28;20117;-77
2023/06/14 11:02:29;;;;;;;1999.90;999.90;;;26.10;54.80;;;;;;5035405;28;20030;-76
2023/06/14 11:04:59;;;;;;;1999.90;999.90;;;25.50;55.50;;;;;;5017604;28;20038;-77
2023/06/14 11:07:46;;;;;;;1999.90;999.90;;;25.60;56.70;;;;;;5035382;28;20526;-76
2023/06/14 11:10:40;;;;;;;1999.90;999.90;;;26.30;57.30;;;;;;5034467;28;20036;-77
2023/06/14 11:13:06;;;;;;;1999.90;999.90;;;27.10;54.20;;;;;;5035498;28;20034;-76
2023/06/14 11:15:33;;;;;;;1999.90;999.90;;;26.10;55.20;;;;;;5035193;28;20578;-76
2023/06/14 11:18:04;;;;;;;1999.90;999.90;;;25.50;55.80;;;;;;5037261;28;20487;-79
2023/06/14 11:20:32;;;;;;;1999.90;999.90;;;25.30;57.50;;;;;;5037803;28;20097;-76
2023/06/14 11:22:58;;;;;;;1999.90;999.90;;;25.90;56.50;;;;;;5035494;28;20041;-80
2023/06/14 11:25:26;;;;;;;1999.90;999.90;;;26.70;57.30;;;;;;5035446;28;20033;-74
2023/06/14 11:27:52;;;;;;;1999.90;999.90;;;26.70;57.00;;;;;;5033435;28;20061;-77
2023/06/14 11:30:18;;;;;;;1999.90;999.90;;;26.60;56.70;;;;;;5035095;28;20109;-76
2023/06/14 11:32:51;;;;;;;1999.90;999.90;;;26.40;56.80;;;;;;5035262;28;20479;-77
2023/06/14 11:35:17;;;;;;;1999.90;999.90;;;25.80;57.80;;;;;;5035652;28;20488;-77
2023/06/14 11:37:44;;;;;;;1999.90;999.90;;;25.60;57.60;;;;;;5035731;28;20116;-77
2023/06/14 11:40:11;;;;;;;1999.90;999.90;;;26.50;56.70;;;;;;5035691;28;20037;-77
2023/06/14 11:42:37;;;;;;;1999.90;999.90;;;26.90;55.20;;;;;;5034155;28;20038;-76
2023/06/14 11:45:07;;;;;;;1999.90;999.90;;;27.50;54.70;;;;;;5032892;28;20038;-76
2023/06/14 11:47:33;;;;;;;1999.90;999.90;;;27.70;54.20;;;;;;5015721;28;20033;-77
2023/06/14 11:50:00;;;;;;;1999.90;999.90;;;27.80;54.30;;;;;;5015158;28;20035;-77
2023/06/14 11:52:25;;;;;;;1999.90;999.90;;;27.60;50.60;;;;;;5015488;28;20499;-77
2023/06/14 11:54:51;;;;;;;1999.90;999.90;;;27.90;51.00;;;;;;5015607;28;20039;-76
2023/06/14 11:57:18;;;;;;;1999.90;999.90;;;27.80;52.70;;;;;;5015068;28;20093;-77
2023/06/14 11:59:44;;;;;;;1999.90;999.90;;;27.80;54.80;;;;;;5015144;28;20507;-76